Bloomingdale, IL (60108)

3:33 PM CDT on April 25, 2015 (GMT -0500)
KILROSEL4 | | Change Station
CLOSE
Current Station
Personal Weather Station
Location: Roselle, IL
Elevation: 771 ft
Nearby Weather Stations

Elev 771 ft 41.98 °N, 88.07 °W | Updated 7 seconds ago

Overcast
Overcast
47.0 °F
Feels Like 43 °F
N
8.9
Wind Variable Wind from NE
Gusts 14.3 mph

Today
High -- | Low -- °F
--% Chance of Precip.
Yesterday
High -- | Low -- °F
Precip. -- in
5:57 AM 7:44 PM
Waxing Crescent, 49% visible
Pressure 29.72 in
Visibility 6.0 miles
Clouds Mostly Cloudy 1200 ft
Mostly Cloudy 1600 ft
Overcast 6000 ft
Windchill 43 °F
Dew Point Not available.
Humidity Not available.
Rainfall 0.13 in
Snow Depth Not available.
UV 2 out of 12
Pollen 1.40 out of 12
Air Quality Not available.
Flu Activity Regional
METAR KDPA 251952Z 06016G23KT 6SM -RA BR BKN012 BKN016 OVC060 08/06 A2971 RMK AO2 SLP063 P0000 T00780056

More Conditions Fewer Conditions

Pressure 29.72 in
Visibility 6.0 miles
Clouds Mostly Cloudy 1200 ft
Mostly Cloudy 1600 ft
Overcast 6000 ft
Windchill 43 °F
Dew Point Not available.
Humidity Not available.
Rainfall 0.13 in
Snow Depth Not available.
UV 2 out of 12
Pollen 1.40 out of 12
Air Quality Not available.
Flu Activity Regional
METAR KDPA 251952Z 06016G23KT 6SM -RA BR BKN012 BKN016 OVC060 08/06 A2971 RMK AO2 SLP063 P0000 T00780056

More Conditions Fewer Conditions

10-Day Weather Forecast

Almanac

Astronomy

Apr. 25, 2015 Rise Set
Actual Time
Civil Twilight
Nautical Twilight
Astronomical Twilight
Moon
Length of Visible Light
Length of Day
Tomorrow will be .
, % of the Moon is Illuminated

Today's Extremes

State Highs State Lows

Community

WunderPhotos

Upload Photos

1,816,798 photos uploaded!

WunderBlogs® & News

Nearby

Air Quality

  Air Quality AQ Index Pollutant
Not available.

Snow Depth

Station Depth Elevation

Earthquake Activity

City Distance Mag. Time & Date
Minimum magnitude displayed is 2.5.

Coastal Water Temperatures

Place Temperature

Stations

Nearby Weather Stations

Station Location Temp. Windchill Dew Point Humidity Wind Precip. Elev Updated Type